Dades meteomassalio
Diari Summary for Diciembre 18, 2017 Units:  Metric    English   Both
« Previous Day
Next Day »
Diari Semanal Mensual Anual Personalitzat
  Maxima: Minima: Mijana:
Temperatura: -17.8 °C -15.9 °C -13.1 °C
Rosada: -17.8 °C -17.9 °C -16.1 °C
Humitat: Humidity % 54 % 70 %
Velocitat del vent: 0 km/h 0 km/h 37 km/h
Racha vent: 0 km/h - -
Vent:- - WNW
Pressio: 0 hPa 34716.7 hPa -
Pluja: 0 mm    
Historical Graphs
 
 
Tabular Data for Diciembre 18, 2017
Time Temperature Dew Point Pressure Wind Wind Speed Wind Gust Humidity Rainfall Rate (Hourly) solar Conditions
-17.8 °C -17.8 °C 0 hPa Calm     Humidity % 0 mm SolarRadiationWatts/m^2 W/m2 Conditions
00:04 -14.7 °C -17 °C 35038.3 hPa Calm     75 % 0 mm 0.0 W/m2 CLR
00:06 -14.7 °C -17 °C 35038.3 hPa Calm     75 % 0 mm 0.0 W/m2 CLR
00:11 -15 °C -17.2 °C 35048.5 hPa Calm     76 % 0 mm 0.0 W/m2 CLR
00:16 -15 °C -17.2 °C 35048.5 hPa WNW 5.1 km/h 5.1 km/h 76 % 0 mm 0.0 W/m2 CLR
00:18 -15 °C -17.2 °C 35048.5 hPa West 15 km/h 15 km/h 76 % 0 mm 0.0 W/m2 CLR
00:21 -14.7 °C -16.8 °C 35048.5 hPa West 20.9 km/h 20.9 km/h 76 % 0 mm 0.0 W/m2 CLR
00:26 -14.7 °C -16.8 °C 35048.5 hPa WNW 23.8 km/h 23.8 km/h 76 % 0 mm 0.0 W/m2 CLR
00:27 -14.7 °C -16.8 °C 35048.5 hPa WNW 23.8 km/h 23.8 km/h 76 % 0 mm 0.0 W/m2 CLR
00:31 -14.7 °C -16.8 °C 35048.5 hPa West 23.8 km/h 23.8 km/h 76 % 0 mm 0.0 W/m2 CLR
00:36 -14.7 °C -16.8 °C 35048.5 hPa WNW 17.9 km/h 17.9 km/h 76 % 0 mm 0.0 W/m2 CLR
00:37 -14.7 °C -16.8 °C 35048.5 hPa NW 25.9 km/h 25.9 km/h 76 % 0 mm 0.0 W/m2 CLR
00:42 -14.7 °C -16.8 °C 35048.5 hPa NW 17.9 km/h 17.9 km/h 76 % 0 mm 0.0 W/m2 CLR
00:45 -14.7 °C -16.8 °C 35048.5 hPa WNW 20.9 km/h 20.9 km/h 76 % 0 mm 0.0 W/m2 CLR
00:50 -14.7 °C -16.8 °C 35048.5 hPa West 15 km/h 15 km/h 76 % 0 mm 0.0 W/m2 CLR
00:53 -14.7 °C -16.8 °C 35048.5 hPa West 17.9 km/h 17.9 km/h 76 % 0 mm 0.0 W/m2 CLR
00:55 -14.7 °C -16.8 °C 35048.5 hPa WNW 10.3 km/h 10.3 km/h 76 % 0 mm 0.0 W/m2 CLR
01:00 -14.7 °C -16.8 °C 35048.5 hPa West 20.9 km/h 20.9 km/h 76 % 0 mm 0.0 W/m2 CLR
01:01 -14.7 °C -16.8 °C 35048.5 hPa West 20.9 km/h 20.9 km/h 76 % 0 mm 0.0 W/m2 CLR
01:06 -14.7 °C -16.8 °C 35048.5 hPa WNW 29.8 km/h 29.8 km/h 76 % 0 mm 0.0 W/m2 CLR
01:07 -14.7 °C -16.8 °C 35038.3 hPa WNW 26.9 km/h 26.9 km/h 76 % 0 mm 0.0 W/m2 CLR
01:12 -14.7 °C -16.8 °C 35038.3 hPa WNW 20.9 km/h 20.9 km/h 76 % 0 mm 0.0 W/m2 CLR
01:13 -14.7 °C -16.8 °C 35038.3 hPa West 20.9 km/h 20.9 km/h 76 % 0 mm 0.0 W/m2 CLR
01:18 -14.7 °C -16.8 °C 35038.3 hPa WNW 20.9 km/h 20.9 km/h 77 % 0 mm 0.0 W/m2 CLR
01:19 -14.7 °C -16.8 °C 35038.3 hPa WNW 20.8 km/h 20.8 km/h 77 % 0 mm 0.0 W/m2 CLR
01:23 -14.7 °C -16.8 °C 35038.3 hPa WNW 28.5 km/h 28.5 km/h 77 % 0 mm 0.0 W/m2 CLR
01:24 -14.7 °C -16.8 °C 35038.3 hPa WNW 29.8 km/h 29.8 km/h 77 % 0 mm 0.0 W/m2 CLR
01:29 -14.7 °C -16.8 °C 35038.3 hPa WNW 17.9 km/h 17.9 km/h 77 % 0 mm 0.0 W/m2 CLR
01:31 -14.7 °C -16.8 °C 35038.3 hPa NW 23.8 km/h 23.8 km/h 77 % 0 mm 0.0 W/m2 CLR
01:32 -15 °C -17.1 °C 35038.3 hPa WNW 29.8 km/h 29.8 km/h 77 % 0 mm 0.0 W/m2 CLR
01:37 -15 °C -17.1 °C 35038.3 hPa WNW 29.8 km/h 29.8 km/h 77 % 0 mm 0.0 W/m2 CLR
01:39 -15 °C -17.1 °C 35038.3 hPa WNW 29.8 km/h 29.8 km/h 77 % 0 mm 0.0 W/m2 CLR
01:44 -15 °C -17.2 °C 35038.3 hPa WNW 32.8 km/h 32.8 km/h 76 % 0 mm 0.0 W/m2 CLR
01:45 -15 °C -17.2 °C 35038.3 hPa WNW 26.9 km/h 26.9 km/h 76 % 0 mm 0.0 W/m2 CLR
01:48 -15 °C -17.2 °C 35038.3 hPa NW 29.8 km/h 29.8 km/h 76 % 0 mm 0.0 W/m2 CLR
01:51 -15 °C -17.2 °C 35038.3 hPa WNW 29.8 km/h 29.8 km/h 76 % 0 mm 0.0 W/m2 CLR
01:56 -15 °C -17.2 °C 35024.8 hPa West 29.8 km/h 29.8 km/h 76 % 0 mm 0.0 W/m2 CLR
01:57 -15 °C -17.2 °C 35024.8 hPa WNW 29.8 km/h 29.8 km/h 76 % 0 mm 0.0 W/m2 CLR
02:00 -15 °C -17.2 °C 35024.8 hPa West 20.9 km/h 20.9 km/h 76 % 0 mm 0.0 W/m2 CLR
02:03 -15 °C -17.1 °C 35024.8 hPa WNW 26.9 km/h 26.9 km/h 77 % 0 mm 0.0 W/m2 CLR
02:06 -15 °C -17.1 °C 35024.8 hPa WNW 29.8 km/h 29.8 km/h 77 % 0 mm 0.0 W/m2 CLR
02:08 -15 °C -17.1 °C 35024.8 hPa West 23.8 km/h 23.8 km/h 77 % 0 mm 0.0 W/m2 CLR
02:11 -15 °C -17.1 °C 35024.8 hPa West 29.8 km/h 29.8 km/h 77 % 0 mm 0.0 W/m2 CLR
02:13 -15 °C -17.1 °C 35038.3 hPa West 12.9 km/h 12.9 km/h 77 % 0 mm 0.0 W/m2 CLR
02:17 -15 °C -17.1 °C 35038.3 hPa WSW 15 km/h 15 km/h 77 % 0 mm 0.0 W/m2 CLR
02:22 -15 °C -17.1 °C 35024.8 hPa West 17.9 km/h 17.9 km/h 77 % 0 mm 0.0 W/m2 CLR
02:26 -15 °C -17.1 °C 35038.3 hPa WNW 11.9 km/h 11.9 km/h 77 % 0 mm 0.0 W/m2 CLR
02:28 -15 °C -16.9 °C 35038.3 hPa West 18.2 km/h 18.2 km/h 78 % 0 mm 0.0 W/m2 CLR
02:33 -15.3 °C -17.3 °C 35038.3 hPa West 20.9 km/h 20.9 km/h 78 % 0 mm 0.0 W/m2 CLR
02:34 -15.3 °C -17.3 °C 35038.3 hPa WNW 20.8 km/h 20.8 km/h 78 % 0 mm 0.0 W/m2 CLR
02:39 -15.3 °C -17.3 °C 35024.8 hPa WNW 26.9 km/h 26.9 km/h 78 % 0 mm 0.0 W/m2 CLR
02:44 -15.6 °C -17.6 °C 35024.8 hPa NW 32.8 km/h 32.8 km/h 78 % 0 mm 0.0 W/m2 CLR
02:49 -15.6 °C -17.7 °C 35024.8 hPa WNW 38.8 km/h 38.8 km/h 77 % 0 mm 0.0 W/m2 CLR
02:50 -15.9 °C -17.9 °C 35024.8 hPa WNW 29.8 km/h 29.8 km/h 77 % 0 mm 0.0 W/m2 CLR
02:51 -15.9 °C -17.9 °C 35024.8 hPa WNW 29.8 km/h 29.8 km/h 77 % 0 mm 0.0 W/m2 CLR
02:56 -15.6 °C -17.7 °C 35024.8 hPa WNW 32.8 km/h 32.8 km/h 76 % 0 mm 0.0 W/m2 CLR
02:57 -15.6 °C -17.7 °C 35024.8 hPa NW 29.8 km/h 29.8 km/h 76 % 0 mm 0.0 W/m2 CLR
03:01 -15.3 °C -17.4 °C 35024.8 hPa NW 29.8 km/h 29.8 km/h 76 % 0 mm 0.0 W/m2 CLR
03:02 -15.3 °C -17.4 °C 35024.8 hPa WNW 35.7 km/h 35.7 km/h 76 % 0 mm 0.0 W/m2 CLR
03:07 -15 °C -17.2 °C 35024.8 hPa WNW 20.9 km/h 20.9 km/h 76 % 0 mm 0.0 W/m2 CLR
03:08 -15 °C -17.2 °C 35024.8 hPa WNW 23.8 km/h 23.8 km/h 76 % 0 mm 0.0 W/m2 CLR
03:13 -15 °C -17.2 °C 35024.8 hPa WNW 36.2 km/h 36.2 km/h 76 % 0 mm 0.0 W/m2 CLR
03:18 -15 °C -17.2 °C 35024.8 hPa WNW 26.9 km/h 26.9 km/h 76 % 0 mm 0.0 W/m2 CLR
03:19 -15 °C -17.3 °C 35024.8 hPa WNW 20.9 km/h 20.9 km/h 75 % 0 mm 0.0 W/m2 CLR
03:24 -14.7 °C -16.8 °C 35024.8 hPa West 20.9 km/h 20.9 km/h 76 % 0 mm 0.0 W/m2 CLR
03:25 -14.7 °C -16.8 °C 35024.8 hPa WNW 20.9 km/h 20.9 km/h 76 % 0 mm 0.0 W/m2 CLR
03:30 -15 °C -17.2 °C 35024.8 hPa West 29.8 km/h 29.8 km/h 76 % 0 mm 0.0 W/m2 CLR
03:31 -15 °C -17.2 °C 35024.8 hPa NW 29.8 km/h 29.8 km/h 76 % 0 mm 0.0 W/m2 CLR
03:36 -15 °C -17.2 °C 35024.8 hPa NW 25.9 km/h 25.9 km/h 76 % 0 mm 0.0 W/m2 CLR
03:41 -15 °C -17.2 °C 35024.8 hPa West 29.8 km/h 29.8 km/h 76 % 0 mm 0.0 W/m2 CLR
03:44 -15.3 °C -17.4 °C 35014.6 hPa West 26.9 km/h 26.9 km/h 76 % 0 mm 0.0 W/m2 CLR
03:45 -15.3 °C -17.4 °C 35014.6 hPa West 29.8 km/h 29.8 km/h 76 % 0 mm 0.0 W/m2 CLR
03:49 -15.3 °C -17.4 °C 35014.6 hPa West 23.8 km/h 23.8 km/h 76 % 0 mm 0.0 W/m2 CLR
03:52 -15.6 °C -17.7 °C 35014.6 hPa West 29.8 km/h 29.8 km/h 76 % 0 mm 0.0 W/m2 CLR
03:54 -15.3 °C -17.4 °C 35014.6 hPa WNW 12.9 km/h 12.9 km/h 76 % 0 mm 0.0 W/m2 CLR
03:59 -15.3 °C -17.3 °C 35014.6 hPa West 29.8 km/h 29.8 km/h 77 % 0 mm 0.0 W/m2 CLR
04:01 -15 °C -17.1 °C 35014.6 hPa WNW 26.9 km/h 26.9 km/h 77 % 0 mm 0.0 W/m2 CLR
04:02 -15 °C -17.1 °C 35014.6 hPa WNW 29.8 km/h 29.8 km/h 77 % 0 mm 0.0 W/m2 CLR
04:07 -15.3 °C -17.3 °C 35014.6 hPa West 32.8 km/h 32.8 km/h 77 % 0 mm 0.0 W/m2 CLR
04:12 -15.3 °C -17.3 °C 35014.6 hPa WNW 20.8 km/h 20.8 km/h 77 % 0 mm 0.0 W/m2 CLR
04:18 -15.6 °C -17.7 °C 35014.6 hPa West 26.9 km/h 26.9 km/h 77 % 0 mm 0.0 W/m2 CLR
04:21 -15.3 °C -17.3 °C 35014.6 hPa WNW 20.9 km/h 20.9 km/h 77 % 0 mm 0.0 W/m2 CLR
04:22 -15.3 °C -17.3 °C 35014.6 hPa West 26.9 km/h 26.9 km/h 77 % 0 mm 0.0 W/m2 CLR
04:27 -15.3 °C -17.3 °C 35001.1 hPa West 12.9 km/h 12.9 km/h 77 % 0 mm 0.0 W/m2 CLR
04:28 -15.3 °C -17.3 °C 35014.6 hPa WNW 23.8 km/h 23.8 km/h 77 % 0 mm 0.0 W/m2 CLR
04:30 -15 °C -17.1 °C 35001.1 hPa WNW 15 km/h 15 km/h 77 % 0 mm 0.0 W/m2 CLR
04:34 -15.3 °C -17.3 °C 35001.1 hPa West 15 km/h 15 km/h 77 % 0 mm 0.0 W/m2 CLR
04:36 -15.3 °C -17.3 °C 35001.1 hPa West 29.8 km/h 29.8 km/h 78 % 0 mm 0.0 W/m2 CLR
04:40 -15.3 °C -17.3 °C 35001.1 hPa WNW 29.8 km/h 29.8 km/h 77 % 0 mm 0.0 W/m2 CLR
04:43 -15 °C -17.1 °C 35001.1 hPa WNW 23.3 km/h 23.3 km/h 77 % 0 mm 0.0 W/m2 CLR
04:45 -15.3 °C -17.3 °C 35001.1 hPa West 23.8 km/h 23.8 km/h 77 % 0 mm 0.0 W/m2 CLR
04:50 -15.3 °C -17.3 °C 35001.1 hPa West 20.8 km/h 20.8 km/h 77 % 0 mm 0.0 W/m2 CLR
04:56 -15.6 °C -17.7 °C 35001.1 hPa West 23.8 km/h 23.8 km/h 77 % 0 mm 0.0 W/m2 CLR
05:01 -15.6 °C -17.7 °C 35001.1 hPa WNW 20.9 km/h 20.9 km/h 77 % 0 mm 0.0 W/m2 CLR
05:06 -15.3 °C -17.3 °C 35001.1 hPa WNW 29.8 km/h 29.8 km/h 77 % 0 mm 0.0 W/m2 CLR
05:07 -15.3 °C -17.3 °C 35001.1 hPa West 15.6 km/h 15.6 km/h 77 % 0 mm 0.0 W/m2 CLR
05:12 -15 °C -17.1 °C 34990.9 hPa WNW 28.5 km/h 28.5 km/h 77 % 0 mm 0.0 W/m2 CLR
05:13 -15 °C -17.1 °C 34990.9 hPa WNW 29.8 km/h 29.8 km/h 77 % 0 mm 0.0 W/m2 CLR
05:18 -15 °C -17.1 °C 35001.1 hPa NW 25.9 km/h 25.9 km/h 77 % 0 mm 0.0 W/m2 CLR
05:20 -15 °C -17.1 °C 35001.1 hPa West 29.8 km/h 29.8 km/h 77 % 0 mm 0.0 W/m2 CLR
05:23 -15.3 °C -17.3 °C 34990.9 hPa WNW 29.8 km/h 29.8 km/h 77 % 0 mm 0.0 W/m2 CLR
05:26 -15.3 °C -17.3 °C 34990.9 hPa West 15 km/h 15 km/h 77 % 0 mm 0.0 W/m2 CLR
05:31 -15 °C -17.1 °C 34990.9 hPa West 23.8 km/h 23.8 km/h 77 % 0 mm 0.0 W/m2 CLR
05:33 -15 °C -17.1 °C 34990.9 hPa West 11.9 km/h 11.9 km/h 77 % 0 mm 0.0 W/m2 CLR
05:36 -15 °C -17.1 °C 34990.9 hPa West 23.8 km/h 23.8 km/h 77 % 0 mm 0.0 W/m2 CLR
05:40 -15 °C -17.1 °C 34990.9 hPa West 26.9 km/h 26.9 km/h 77 % 0 mm 0.0 W/m2 CLR
05:42 -15 °C -17.1 °C 34990.9 hPa WNW 29.8 km/h 29.8 km/h 77 % 0 mm 0.0 W/m2 CLR
05:47 -15 °C -17.1 °C 34990.9 hPa West 32.8 km/h 32.8 km/h 77 % 0 mm 0.0 W/m2 CLR
05:52 -15 °C -17.1 °C 34990.9 hPa West 23.8 km/h 23.8 km/h 77 % 0 mm 0.0 W/m2 CLR
05:57 -15 °C -16.9 °C 34980.8 hPa WSW 20.9 km/h 20.9 km/h 78 % 0 mm 0.0 W/m2 CLR
05:58 -15 °C -17.1 °C 34980.8 hPa West 20.9 km/h 20.9 km/h 77 % 0 mm 0.0 W/m2 CLR
06:02 -15 °C -16.9 °C 34980.8 hPa WNW 25.9 km/h 25.9 km/h 78 % 0 mm 0.0 W/m2 CLR
06:03 -15 °C -17.1 °C 34980.8 hPa WNW 23.3 km/h 23.3 km/h 77 % 0 mm 0.0 W/m2 CLR
06:08 -15 °C -16.9 °C 34990.9 hPa WNW 29.8 km/h 29.8 km/h 78 % 0 mm 0.0 W/m2 CLR
06:09 -15 °C -17.1 °C 34990.9 hPa WSW 26.9 km/h 26.9 km/h 77 % 0 mm 0.0 W/m2 CLR
06:13 -15 °C -17.1 °C 34980.8 hPa West 26.9 km/h 26.9 km/h 77 % 0 mm 0.0 W/m2 CLR
06:18 -15 °C -17.1 °C 34980.8 hPa West 23.8 km/h 23.8 km/h 77 % 0 mm 0.0 W/m2 CLR
06:21 -15.3 °C -17.3 °C 34980.8 hPa WNW 17.9 km/h 17.9 km/h 77 % 0 mm 0.0 W/m2 CLR
06:26 -15.3 °C -17.3 °C 34980.8 hPa WNW 25.9 km/h 25.9 km/h 77 % 0 mm 0.0 W/m2 CLR
06:27 -15.3 °C -17.4 °C 34980.8 hPa WNW 26.9 km/h 26.9 km/h 76 % 0 mm 0.0 W/m2 CLR
06:32 -15.3 °C -17.4 °C 34980.8 hPa NW 26.9 km/h 26.9 km/h 76 % 0 mm 0.0 W/m2 CLR
06:37 -15.3 °C -17.4 °C 34967.2 hPa NW 29.8 km/h 29.8 km/h 76 % 0 mm 0.0 W/m2 CLR
06:38 -15 °C -17.3 °C 34980.8 hPa WNW 29.8 km/h 29.8 km/h 75 % 0 mm 0.0 W/m2 CLR
06:39 -15 °C -17.2 °C 34980.8 hPa NW 44.1 km/h 44.1 km/h 76 % 0 mm 0.0 W/m2 CLR
06:44 -15 °C -17.3 °C 34980.8 hPa NW 36.2 km/h 36.2 km/h 75 % 0 mm 0.0 W/m2 CLR
06:45 -15 °C -17.3 °C 34980.8 hPa NW 31.1 km/h 31.1 km/h 75 % 0 mm 0.0 W/m2 CLR
06:50 -14.7 °C -17 °C 34980.8 hPa NW 33.6 km/h 33.6 km/h 75 % 0 mm 0.0 W/m2 CLR
06:55 -14.7 °C -17 °C 34980.8 hPa NW 47.6 km/h 47.6 km/h 75 % 0 mm 0.0 W/m2 CLR
06:56 -14.7 °C -17 °C 34980.8 hPa NW 47.6 km/h 47.6 km/h 75 % 0 mm 0.0 W/m2 CLR
07:00 -14.7 °C -17.1 °C 34980.8 hPa NW 38.8 km/h 38.8 km/h 74 % 0 mm 0.0 W/m2 CLR
07:01 -14.7 °C -17 °C 34980.8 hPa NW 38.8 km/h 38.8 km/h 75 % 0 mm 0.0 W/m2 CLR
07:06 -14.7 °C -17.1 °C 34990.9 hPa WNW 38.8 km/h 38.8 km/h 74 % 0 mm 0.0 W/m2 CLR
07:07 -14.7 °C -17.1 °C 34990.9 hPa WNW 31.1 km/h 31.1 km/h 74 % 0 mm 0.0 W/m2 CLR
07:12 -14.7 °C -17 °C 34990.9 hPa NW 23.8 km/h 23.8 km/h 75 % 0 mm 0.0 W/m2 CLR
07:17 -14.7 °C -17 °C 34990.9 hPa WNW 26.9 km/h 26.9 km/h 75 % 0 mm 0.0 W/m2 CLR
07:19 -14.7 °C -17 °C 34990.9 hPa West 35.7 km/h 35.7 km/h 75 % 0 mm 0.0 W/m2 CLR
07:24 -14.7 °C -17.1 °C 34990.9 hPa WNW 29.8 km/h 29.8 km/h 74 % 0 mm 0.0 W/m2 CLR
07:25 -14.7 °C -17 °C 34990.9 hPa WNW 23.8 km/h 23.8 km/h 75 % 0 mm 0.0 W/m2 CLR
07:29 -14.7 °C -17.1 °C 35001.1 hPa WNW 12.9 km/h 12.9 km/h 74 % 0 mm 0.0 W/m2 CLR
07:30 -14.7 °C -17.1 °C 35001.1 hPa WNW 11.9 km/h 11.9 km/h 74 % 0 mm 0.0 W/m2 CLR
07:35 -15 °C -17.4 °C 35001.1 hPa WNW 20.9 km/h 20.9 km/h 74 % 0 mm 0.0 W/m2 CLR
07:36 -15 °C -17.3 °C 35001.1 hPa WNW 17.9 km/h   75 % 0 mm 0.0 W/m2 CLR
07:41 -15 °C -17.4 °C 34990.9 hPa West 17.9 km/h 17.9 km/h 74 % 0 mm 0.0 W/m2 CLR
07:46 -15 °C -17.4 °C 34990.9 hPa Calm     74 % 0 mm 0.0 W/m2 CLR
07:51 -14.7 °C -17 °C 35001.1 hPa Calm     75 % 0 mm 0.0 W/m2 CLR
07:56 -14.7 °C -17 °C 35001.1 hPa WNW 29.8 km/h 29.8 km/h 75 % 0 mm 0.0 W/m2 CLR
07:58 -14.7 °C -17 °C 35001.1 hPa NW 20.9 km/h 20.9 km/h 75 % 0 mm 0.0 W/m2 CLR
08:01 -14.7 °C -17.1 °C 35001.1 hPa WNW 23.8 km/h 23.8 km/h 74 % 0 mm 0.0 W/m2 CLR
08:04 -14.7 °C -17.1 °C 35001.1 hPa WNW 20.8 km/h 20.8 km/h 74 % 0 mm 0.0 W/m2 CLR
08:09 -14.7 °C -17.2 °C 35001.1 hPa NW 29.8 km/h 29.8 km/h 73 % 0 mm 0.0 W/m2 CLR
08:14 -14.4 °C -16.9 °C 35001.1 hPa WNW 23.8 km/h 23.8 km/h 73 % 0 mm 0.0 W/m2 OVC
08:19 -14.4 °C -16.9 °C 34990.9 hPa NW 33.6 km/h 33.6 km/h 73 % 0 mm 0.0 W/m2 OVC
08:20 -14.4 °C -16.9 °C 35001.1 hPa NW 32.8 km/h 32.8 km/h 73 % 0 mm 0.0 W/m2 OVC
08:24 -14.4 °C -16.9 °C 35001.1 hPa NW 20.9 km/h 20.9 km/h 73 % 0 mm 5.0 W/m2 OVC
08:27 -14.4 °C -16.9 °C 35001.1 hPa NW 23.8 km/h 23.8 km/h 73 % 0 mm 5.0 W/m2 OVC
08:32 -14.1 °C -16.6 °C 35014.6 hPa NW 29.8 km/h 29.8 km/h 73 % 0 mm 7.0 W/m2 BKN
08:37 -14.1 °C -16.7 °C 35014.6 hPa NW 26.9 km/h 26.9 km/h 72 % 0 mm 11.0 W/m2 BKN
08:38 -14.1 °C -16.7 °C 35014.6 hPa WNW 23.8 km/h 23.8 km/h 72 % 0 mm 11.0 W/m2 BKN
08:43 -14.1 °C -16.7 °C 35014.6 hPa NW 23.8 km/h 23.8 km/h 72 % 0 mm 11.0 W/m2 BKN
08:48 -14.1 °C -16.7 °C 35014.6 hPa NW 25.9 km/h 25.9 km/h 72 % 0 mm 12.0 W/m2 BKN
08:52 -14.1 °C -16.7 °C 35014.6 hPa NW 23.8 km/h 23.8 km/h 72 % 0 mm 12.0 W/m2 BKN
08:53 -14.1 °C -16.7 °C 35014.6 hPa NW 20.9 km/h 20.9 km/h 72 % 0 mm 12.0 W/m2 BKN
08:58 -14.1 °C -16.7 °C 35014.6 hPa WNW 23.3 km/h 23.3 km/h 72 % 0 mm 16.0 W/m2 BKN
09:08 -14.1 °C -16.7 °C 35014.6 hPa NW 38.8 km/h 38.8 km/h 72 % 0 mm 33.0 W/m2 BKN
09:10 -14.1 °C -16.7 °C 35014.6 hPa WNW 32.8 km/h 32.8 km/h 72 % 0 mm 40.0 W/m2 BKN
09:15 -14.1 °C -16.7 °C 35014.6 hPa NW 29.8 km/h 29.8 km/h 72 % 0 mm 51.0 W/m2 SCT
09:16 -14.1 °C -16.7 °C 35014.6 hPa WNW 35.7 km/h 35.7 km/h 72 % 0 mm 53.0 W/m2 SCT
09:18 -14.1 °C -16.7 °C 35014.6 hPa WNW 32.8 km/h 32.8 km/h 72 % 0 mm 58.0 W/m2 SCT
09:23 -14.1 °C -16.8 °C 35014.6 hPa WNW 41.7 km/h 41.7 km/h 71 % 0 mm 63.0 W/m2 SCT
09:25 -14.1 °C -16.8 °C 35014.6 hPa WNW 35.7 km/h 35.7 km/h 71 % 0 mm 67.0 W/m2 SCT
09:30 -14.1 °C -16.7 °C 35014.6 hPa West 38.8 km/h 38.8 km/h 72 % 0 mm 60.0 W/m2 FEW
09:35 -13.8 °C -16.5 °C 35001.1 hPa WNW 35.7 km/h 35.7 km/h 71 % 0 mm 58.0 W/m2 SCT
09:36 -13.8 °C -16.5 °C 35001.1 hPa WNW 35.7 km/h 35.7 km/h 71 % 0 mm 62.0 W/m2 SCT
09:39 -13.8 °C -16.5 °C 35001.1 hPa WNW 35.7 km/h 35.7 km/h 71 % 0 mm 67.0 W/m2 SCT
09:41 -13.8 °C -16.5 °C 35001.1 hPa NW 41.7 km/h 41.7 km/h 71 % 0 mm 69.0 W/m2 SCT
09:46 -13.8 °C -16.5 °C 35001.1 hPa NW 38.8 km/h 38.8 km/h 71 % 0 mm 67.0 W/m2 FEW
09:47 -13.8 °C -16.5 °C 35001.1 hPa West 38.8 km/h 38.8 km/h 71 % 0 mm 69.0 W/m2 FEW
09:48 -13.8 °C -16.5 °C 35001.1 hPa WNW 41.7 km/h 41.7 km/h 71 % 0 mm 70.0 W/m2 FEW
09:53 -13.8 °C -16.6 °C 35014.6 hPa WNW 33.6 km/h 33.6 km/h 70 % 0 mm 77.0 W/m2 FEW
09:54 -13.8 °C -16.6 °C 35014.6 hPa WNW 32.8 km/h 32.8 km/h 70 % 0 mm 74.0 W/m2 FEW
09:58 -13.8 °C -16.6 °C 35014.6 hPa NW 44.7 km/h 44.7 km/h 70 % 0 mm 79.0 W/m2 FEW
09:59 -13.8 °C -16.6 °C 35014.6 hPa NW 38.8 km/h 38.8 km/h 70 % 0 mm 83.0 W/m2 FEW
10:03 -13.4 °C -16.3 °C 35014.6 hPa NW 47.6 km/h 47.6 km/h 70 % 0 mm 83.0 W/m2 FEW
10:05 -13.4 °C -16.3 °C 35014.6 hPa NW 41.7 km/h 41.7 km/h 70 % 0 mm 88.0 W/m2 FEW
10:10 -13.4 °C -16.4 °C 35014.6 hPa NW 38.8 km/h 38.8 km/h 69 % 0 mm 86.0 W/m2 CLR
10:15 -13.4 °C -16.4 °C 35014.6 hPa WNW 35.7 km/h 35.7 km/h 69 % 0 mm 97.0 W/m2 CLR
10:16 -13.4 °C -16.4 °C 35014.6 hPa NW 29.8 km/h 29.8 km/h 69 % 0 mm 105.0 W/m2 CLR
10:21 -13.4 °C -16.4 °C 35014.6 hPa WNW 29.8 km/h 29.8 km/h 69 % 0 mm 132.0 W/m2 CLR
10:26 -13.2 °C -16.2 °C 35001.1 hPa NW 41.7 km/h 41.7 km/h 68 % 0 mm 128.0 W/m2 CLR
10:31 -13.2 °C -16.2 °C 35014.6 hPa NNW 38.8 km/h 38.8 km/h 68 % 0 mm 153.0 W/m2 CLR
10:32 -13.2 °C -16.2 °C 35014.6 hPa NW 41.7 km/h 41.7 km/h 68 % 0 mm 156.0 W/m2 CLR
10:34 -13.2 °C -16.2 °C 35014.6 hPa NW 29.8 km/h 29.8 km/h 68 % 0 mm 169.0 W/m2 CLR
10:37 -13.2 °C -16.3 °C 35024.8 hPa NW 29.8 km/h 29.8 km/h 67 % 0 mm 163.0 W/m2 CLR
10:42 -13.2 °C -16.3 °C 35024.8 hPa NW 47.6 km/h 47.6 km/h 67 % 0 mm 179.0 W/m2 CLR
10:47 -13.2 °C -16.3 °C 35024.8 hPa NW 44.7 km/h 44.7 km/h 67 % 0 mm 153.0 W/m2 CLR
10:48 -13.2 °C -16.3 °C 35024.8 hPa NW 44.7 km/h 44.7 km/h 67 % 0 mm 153.0 W/m2 CLR
10:51 -12.8 °C -16.1 °C 35014.6 hPa NNW 32.8 km/h 32.8 km/h 67 % 0 mm 162.0 W/m2 CLR
10:55 -12.8 °C -16.2 °C 35014.6 hPa NW 33.6 km/h 33.6 km/h 66 % 0 mm 181.0 W/m2 CLR
11:00 -12.8 °C -16.2 °C 35014.6 hPa WNW 32.8 km/h 32.8 km/h 66 % 0 mm 274.0 W/m2 CLR
11:05 -12.8 °C -16.2 °C 35001.1 hPa WNW 36.2 km/h 36.2 km/h 66 % 0 mm 253.0 W/m2 CLR
11:07 -12.8 °C -16.2 °C 35001.1 hPa NW 38.8 km/h 38.8 km/h 66 % 0 mm 258.0 W/m2 CLR
11:12 -12.8 °C -16.2 °C 35001.1 hPa NW 23.8 km/h 23.8 km/h 66 % 0 mm 234.0 W/m2 CLR
11:13 -12.8 °C -16.2 °C 35001.1 hPa NNW 26.9 km/h 26.9 km/h 66 % 0 mm 225.0 W/m2 CLR
11:17 -12.8 °C -16.2 °C 35001.1 hPa NW 35.7 km/h 35.7 km/h 66 % 0 mm 234.0 W/m2 CLR
11:22 -12.8 °C -16.3 °C 35001.1 hPa WNW 44.7 km/h 44.7 km/h 65 % 0 mm 239.0 W/m2 CLR
11:26 -12.8 °C -16.2 °C 35001.1 hPa NNW 46.7 km/h 46.7 km/h 66 % 0 mm 225.0 W/m2 CLR
11:27 -12.8 °C -16.3 °C 35001.1 hPa NW 50.7 km/h 50.7 km/h 65 % 0 mm 229.0 W/m2 CLR
11:32 -12.6 °C -16 °C 34990.9 hPa NW 29.8 km/h 29.8 km/h 65 % 0 mm 234.0 W/m2 CLR
11:33 -12.6 °C -15.9 °C 34990.9 hPa NNW 38.8 km/h 38.8 km/h 66 % 0 mm 234.0 W/m2 CLR
11:35 -12.6 °C -15.9 °C 34990.9 hPa NW 44.7 km/h 44.7 km/h 66 % 0 mm 239.0 W/m2 CLR
11:39 -12.6 °C -16 °C 34990.9 hPa WNW 47.6 km/h 47.6 km/h 65 % 0 mm 230.0 W/m2 CLR
11:44 -12.6 °C -16 °C 34980.8 hPa NNW 50.7 km/h 50.7 km/h 65 % 0 mm 229.0 W/m2 CLR
11:45 -12.6 °C -16 °C 34980.8 hPa NW 50.7 km/h 50.7 km/h 65 % 0 mm 229.0 W/m2 CLR
11:46 -12.6 °C -16 °C 34980.8 hPa NW 47.6 km/h 47.6 km/h 65 % 0 mm 239.0 W/m2 CLR
11:52 -12.6 °C -16 °C 34980.8 hPa NW 29.8 km/h 29.8 km/h 65 % 0 mm 232.0 W/m2 CLR
11:57 -12.6 °C -16 °C 34967.2 hPa NW 29.8 km/h 29.8 km/h 65 % 0 mm 246.0 W/m2 CLR
11:58 -12.6 °C -16 °C 34967.2 hPa NW 41.7 km/h 41.7 km/h 65 % 0 mm 246.0 W/m2 CLR
12:03 -12.6 °C -16 °C 34967.2 hPa NW 36.2 km/h 36.2 km/h 65 % 0 mm 246.0 W/m2 CLR
12:04 -12.6 °C -16.2 °C 34967.2 hPa NW 47.6 km/h 47.6 km/h 64 % 0 mm 243.0 W/m2 CLR
12:09 -12.2 °C -15.7 °C 34967.2 hPa NW 44.7 km/h 44.7 km/h 65 % 0 mm 244.0 W/m2 CLR
12:10 -12.2 °C -15.7 °C 34957.1 hPa NW 44.7 km/h 44.7 km/h 65 % 0 mm 246.0 W/m2 CLR
12:11 -12.2 °C -15.8 °C 34957.1 hPa NW 44.7 km/h 44.7 km/h 64 % 0 mm 246.0 W/m2 CLR
12:15 -12.2 °C -15.8 °C 34957.1 hPa NNW 38.8 km/h 38.8 km/h 64 % 0 mm 241.0 W/m2 CLR
12:20 -12.2 °C -15.8 °C 34957.1 hPa NW 53.6 km/h 53.6 km/h 64 % 0 mm 234.0 W/m2 CLR
12:22 -12.2 °C -15.8 °C 34957.1 hPa NW 50.7 km/h 50.7 km/h 64 % 0 mm 234.0 W/m2 CLR
12:27 -12.2 °C -15.8 °C 34946.9 hPa NW 29.8 km/h 29.8 km/h 64 % 0 mm 236.0 W/m2 CLR
12:28 -12.2 °C -15.8 °C 34957.1 hPa NNW 29.8 km/h 29.8 km/h 64 % 0 mm 236.0 W/m2 CLR
12:29 -12.2 °C -15.8 °C 34946.9 hPa NW 50.7 km/h 50.7 km/h 64 % 0 mm 236.0 W/m2 CLR
12:34 -12.2 °C -15.8 °C 34946.9 hPa NNW 44.7 km/h 44.7 km/h 64 % 0 mm 251.0 W/m2 CLR
12:39 -11.9 °C -15.7 °C 34946.9 hPa NNW 41.7 km/h 41.7 km/h 63 % 0 mm 250.0 W/m2 CLR
12:40 -11.9 °C -15.7 °C 34946.9 hPa NNW 41.7 km/h 41.7 km/h 63 % 0 mm 250.0 W/m2 CLR
12:45 -11.9 °C -15.7 °C 34946.9 hPa NNW 41.7 km/h 41.7 km/h 63 % 0 mm 241.0 W/m2 CLR
12:49 -11.9 °C -15.7 °C 34933.4 hPa NNW 41.7 km/h 41.7 km/h 63 % 0 mm 241.0 W/m2 CLR
12:52 -11.9 °C -15.7 °C 34933.4 hPa NW 29.8 km/h 29.8 km/h 63 % 0 mm 229.0 W/m2 CLR
12:54 -11.9 °C -15.7 °C 34933.4 hPa NW 25.9 km/h 25.9 km/h 63 % 0 mm 220.0 W/m2 CLR
12:59 -11.9 °C -15.7 °C 34923.2 hPa NW 41.7 km/h 41.7 km/h 63 % 0 mm 197.0 W/m2 CLR
13:01 -11.9 °C -15.7 °C 34923.2 hPa North 47.6 km/h 47.6 km/h 63 % 0 mm 197.0 W/m2 CLR
13:05 -11.9 °C -15.7 °C 34923.2 hPa NNW 53.6 km/h 53.6 km/h 63 % 0 mm 209.0 W/m2 CLR
13:10 -11.9 °C -15.7 °C 34923.2 hPa NNW 35.7 km/h 35.7 km/h 63 % 0 mm 214.0 W/m2 CLR
13:15 -11.9 °C -15.7 °C 34909.7 hPa North 53.6 km/h 53.6 km/h 63 % 0 mm 214.0 W/m2 CLR
13:16 -11.9 °C -15.7 °C 34909.7 hPa North 53.6 km/h 53.6 km/h 63 % 0 mm 218.0 W/m2 CLR
13:21 -11.9 °C -15.7 °C 34909.7 hPa NNW 50.7 km/h 50.7 km/h 63 % 0 mm 229.0 W/m2 CLR
13:22 -11.9 °C -15.7 °C 34909.7 hPa North 50.7 km/h 50.7 km/h 63 % 0 mm 230.0 W/m2 CLR
13:26 -11.9 °C -15.7 °C 34899.5 hPa NNW 51.8 km/h 51.8 km/h 63 % 0 mm 276.0 W/m2 CLR
13:28 -11.6 °C -15.4 °C 34899.5 hPa NNW 47.6 km/h 47.6 km/h 63 % 0 mm 264.0 W/m2 CLR
13:33 -11.6 °C -15.5 °C 34899.5 hPa NNW 51.8 km/h 51.8 km/h 62 % 0 mm 271.0 W/m2 CLR
13:34 -11.6 °C -15.5 °C 34899.5 hPa North 53.6 km/h 53.6 km/h 62 % 0 mm 250.0 W/m2 CLR
13:35 -11.6 °C -15.5 °C 34899.5 hPa NNW 53.6 km/h 53.6 km/h 62 % 0 mm 250.0 W/m2 CLR
13:40 -11.6 °C -15.5 °C 34899.5 hPa NNE 50.7 km/h 50.7 km/h 62 % 0 mm 243.0 W/m2 CLR
13:41 -11.6 °C -15.5 °C 34889.3 hPa NW 38.8 km/h 38.8 km/h 62 % 0 mm 227.0 W/m2 CLR
13:43 -11.6 °C -15.5 °C 34889.3 hPa NNW 38.8 km/h 38.8 km/h 62 % 0 mm 230.0 W/m2 CLR
13:48 -11.6 °C -15.5 °C 34889.3 hPa North 44.1 km/h 44.1 km/h 62 % 0 mm 234.0 W/m2 CLR
13:49 -11.6 °C -15.5 °C 34889.3 hPa North 47.6 km/h 47.6 km/h 62 % 0 mm 232.0 W/m2 CLR
13:54 -11.6 °C -15.5 °C 34875.8 hPa NW 47.6 km/h 47.6 km/h 62 % 0 mm 237.0 W/m2 CLR
13:57 -11.6 °C -15.4 °C 34889.3 hPa NNW 35.7 km/h 35.7 km/h 63 % 0 mm 251.0 W/m2 CLR
14:01 -11.6 °C -15.4 °C 34875.8 hPa North 41.7 km/h 41.7 km/h 63 % 0 mm 221.0 W/m2 CLR
14:06 -11.6 °C -15.5 °C 34875.8 hPa NW 38.8 km/h 38.8 km/h 62 % 0 mm 258.0 W/m2 CLR
14:07 -11.6 °C -15.5 °C 34875.8 hPa North 38.8 km/h 38.8 km/h 62 % 0 mm 265.0 W/m2 CLR
14:12 -11.6 °C -15.5 °C 34865.6 hPa NW 44.7 km/h 44.7 km/h 62 % 0 mm 255.0 W/m2 CLR
14:16 -11.3 °C -15.3 °C 34865.6 hPa North 47.6 km/h 47.6 km/h 61 % 0 mm 246.0 W/m2 CLR
14:21 -11.3 °C -15.2 °C 34865.6 hPa NNW 35.7 km/h 35.7 km/h 62 % 0 mm 325.0 W/m2 CLR
14:25 -11.3 °C -15.3 °C 34852.1 hPa NW 36.2 km/h 36.2 km/h 61 % 0 mm 287.0 W/m2 CLR
14:30 -11.3 °C -15.3 °C 34852.1 hPa NW 38.8 km/h 38.8 km/h 61 % 0 mm 223.0 W/m2 CLR
14:31 -11.3 °C -15.3 °C 34852.1 hPa North 38.8 km/h 38.8 km/h 61 % 0 mm 223.0 W/m2 CLR
14:36 -11.3 °C -15.3 °C 34841.9 hPa NW 32.8 km/h 32.8 km/h 61 % 0 mm 227.0 W/m2 CLR
14:37 -11.3 °C -15.3 °C 34852.1 hPa North 32.8 km/h 32.8 km/h 61 % 0 mm 248.0 W/m2 CLR
14:42 -11.3 °C -15.4 °C 34841.9 hPa North 36.2 km/h 36.2 km/h 60 % 0 mm 197.0 W/m2 CLR
14:43 -11.3 °C -15.4 °C 34841.9 hPa NW 41.7 km/h 41.7 km/h 60 % 0 mm 195.0 W/m2 CLR
14:48 -11.3 °C -15.4 °C 34841.9 hPa NNW 26.9 km/h 26.9 km/h 60 % 0 mm 257.0 W/m2 CLR
14:49 -11.3 °C -15.4 °C 34841.9 hPa NNW 36.2 km/h 36.2 km/h 60 % 0 mm 237.0 W/m2 CLR
14:53 -11.3 °C -15.6 °C 34841.9 hPa North 47.6 km/h 47.6 km/h 59 % 0 mm 220.0 W/m2 CLR
14:58 -11.3 °C -15.7 °C 34841.9 hPa NW 49.2 km/h 49.2 km/h 58 % 0 mm 135.0 W/m2 CLR
15:01 -11.3 °C -15.6 °C 34841.9 hPa NW 35.7 km/h 35.7 km/h 59 % 0 mm 160.0 W/m2 CLR
15:04 -11.3 °C -15.6 °C 34841.9 hPa NNW 36.2 km/h 37 km/h 59 % 0 mm 200.0 W/m2 CLR
15:06 -11.3 °C -15.6 °C 34841.9 hPa NNW 47.6 km/h 47.6 km/h 59 % 0 mm 141.0 W/m2 CLR
15:11 -11.3 °C -15.6 °C 34831.8 hPa North 50.7 km/h 50.7 km/h 59 % 0 mm 134.0 W/m2 CLR
15:13 -11.3 °C -15.6 °C 34831.8 hPa North 38.8 km/h 38.8 km/h 59 % 0 mm 155.0 W/m2 CLR
15:18 -11.3 °C -15.6 °C 34831.8 hPa NW 38.8 km/h 38.8 km/h 59 % 0 mm 197.0 W/m2 CLR
15:20 -11.3 °C -15.6 °C 34831.8 hPa North 35.7 km/h 35.7 km/h 59 % 0 mm 239.0 W/m2 CLR
15:24 -11.3 °C -15.9 °C 34818.2 hPa NNW 59.5 km/h 59.5 km/h 57 % 0 mm 134.0 W/m2 CLR
15:25 -11.3 °C -15.9 °C 34818.2 hPa NW 59.5 km/h 59.5 km/h 57 % 0 mm 125.0 W/m2 CLR
15:30 -11.3 °C -16 °C 34818.2 hPa NW 50.7 km/h 50.7 km/h 56 % 0 mm 118.0 W/m2 CLR
15:31 -11.3 °C -16 °C 34818.2 hPa NNW 41.7 km/h 41.7 km/h 56 % 0 mm 111.0 W/m2 CLR
15:35 -11.3 °C -16.2 °C 34818.2 hPa NW 56.6 km/h 56.6 km/h 55 % 0 mm 181.0 W/m2 CLR
15:38 -11.3 °C -16.3 °C 34818.2 hPa NNW 56.6 km/h 56.6 km/h 54 % 0 mm 97.0 W/m2 CLR
15:42 -11.3 °C -16.2 °C 34818.2 hPa NNW 32.8 km/h 32.8 km/h 55 % 0 mm 111.0 W/m2 CLR
15:47 -11.3 °C -16.3 °C 34818.2 hPa NW 41.7 km/h 41.7 km/h 54 % 0 mm 76.0 W/m2 CLR
15:52 -11.3 °C -16.3 °C 34818.2 hPa NNW 53.6 km/h 53.6 km/h 54 % 0 mm 98.0 W/m2 CLR
15:54 -11.3 °C -16.3 °C 34818.2 hPa NNW 56.6 km/h 56.6 km/h 54 % 0 mm 74.0 W/m2 CLR
15:59 -11.3 °C -16.3 °C 34818.2 hPa North 53.6 km/h 53.6 km/h 54 % 0 mm 63.0 W/m2 FEW
16:04 -11.3 °C -16.2 °C 34808.1 hPa NNW 56.6 km/h 56.6 km/h 55 % 0 mm 60.0 W/m2 FEW
16:09 -11.3 °C -16.2 °C 34808.1 hPa NNW 36.2 km/h 36.2 km/h 55 % 0 mm 42.0 W/m2 SCT
16:10 -11.3 °C -16.2 °C 34808.1 hPa NNW 50.7 km/h 50.7 km/h 55 % 0 mm 40.0 W/m2 SCT
16:11 -11.3 °C -16.2 °C 34808.1 hPa NNW 50.7 km/h 50.7 km/h 55 % 0 mm 40.0 W/m2 SCT
16:16 -11.3 °C -16.2 °C 34808.1 hPa NW 50.7 km/h 50.7 km/h 55 % 0 mm 39.0 W/m2 BKN
16:17 -11.3 °C -16.2 °C 34818.2 hPa North 49.2 km/h 49.2 km/h 55 % 0 mm 47.0 W/m2 BKN
16:22 -11.3 °C -16.2 °C 34818.2 hPa NNW 49.2 km/h 49.2 km/h 55 % 0 mm 37.0 W/m2 BKN
16:25 -11.3 °C -16.2 °C 34818.2 hPa NNW 47.6 km/h 47.6 km/h 55 % 0 mm 39.0 W/m2 BKN
16:27 -11.3 °C -16 °C 34818.2 hPa NNW 26.9 km/h 26.9 km/h 56 % 0 mm 44.0 W/m2 BKN
16:32 -11.3 °C -16 °C 34808.1 hPa North 35.7 km/h 35.7 km/h 56 % 0 mm 37.0 W/m2 BKN
16:36 -11.6 °C -16.2 °C 34808.1 hPa NW 32.8 km/h 32.8 km/h 57 % 0 mm 40.0 W/m2 BKN
16:38 -11.6 °C -16.3 °C 34808.1 hPa North 50.7 km/h 50.7 km/h 56 % 0 mm 37.0 W/m2 BKN
16:43 -11.6 °C -16.3 °C 34808.1 hPa NW 50.7 km/h 50.7 km/h 56 % 0 mm 53.0 W/m2 SCT
16:48 -11.6 °C -16.3 °C 34808.1 hPa NW 26.9 km/h 26.9 km/h 56 % 0 mm 46.0 W/m2 SCT
16:50 -11.6 °C -16.3 °C 34808.1 hPa NNW 44.7 km/h 44.7 km/h 56 % 0 mm 46.0 W/m2 SCT
16:51 -11.6 °C -16.3 °C 34808.1 hPa North 44.7 km/h 44.7 km/h 56 % 0 mm 49.0 W/m2 SCT
16:55 -11.6 °C -16.3 °C 34808.1 hPa NW 47.6 km/h 47.6 km/h 56 % 0 mm 46.0 W/m2 BKN
16:58 -11.6 °C -16.3 °C 34808.1 hPa NW 56.6 km/h 56.6 km/h 56 % 0 mm 39.0 W/m2 BKN
17:01 -11.6 °C -16.3 °C 34808.1 hPa NNW 44.7 km/h 44.7 km/h 56 % 0 mm 46.0 W/m2 BKN
17:06 -11.6 °C -16.3 °C 34797.9 hPa NW 29.8 km/h 29.8 km/h 56 % 0 mm 33.0 W/m2 BKN
17:08 -11.6 °C -16.3 °C 34797.9 hPa NW 29.8 km/h 29.8 km/h 56 % 0 mm 32.0 W/m2 BKN
17:13 -11.6 °C -16.2 °C 34797.9 hPa NW 32.8 km/h 32.8 km/h 57 % 0 mm 18.0 W/m2 BKN
17:16 -11.6 °C -16.2 °C 34797.9 hPa WNW 29.8 km/h 29.8 km/h 57 % 0 mm 12.0 W/m2 BKN
17:18 -11.6 °C -16.2 °C 34797.9 hPa NNW 35.7 km/h 35.7 km/h 57 % 0 mm 12.0 W/m2 BKN
17:23 -11.6 °C -16.2 °C 34784.4 hPa North 47.6 km/h 47.6 km/h 57 % 0 mm 7.0 W/m2 BKN
17:28 -11.6 °C -16.2 °C 34784.4 hPa NW 47.6 km/h 47.6 km/h 57 % 0 mm 0.0 W/m2 OVC
17:30 -11.6 °C -16.2 °C 34784.4 hPa NW 59.5 km/h 59.5 km/h 57 % 0 mm 0.0 W/m2 OVC
17:35 -11.6 °C -16.2 °C 34774.2 hPa NNW 41.7 km/h 41.7 km/h 57 % 0 mm 0.0 W/m2 OVC
17:37 -11.6 °C -16.2 °C 34774.2 hPa NNW 35.7 km/h 35.7 km/h 57 % 0 mm 0.0 W/m2 OVC
17:41 -11.6 °C -16.2 °C 34774.2 hPa NNW 38.8 km/h 38.8 km/h 57 % 0 mm 0.0 W/m2 OVC
17:43 -11.6 °C -16 °C 34774.2 hPa WNW 29.8 km/h 29.8 km/h 58 % 0 mm 0.0 W/m2 CLR
17:46 -11.6 °C -16 °C 34774.2 hPa NNW 38.8 km/h 38.8 km/h 58 % 0 mm 0.0 W/m2 CLR
17:48 -11.6 °C -16 °C 34774.2 hPa NNW 56.6 km/h 56.6 km/h 58 % 0 mm 0.0 W/m2 CLR
17:53 -11.6 °C -16 °C 34774.2 hPa North 38.8 km/h 38.8 km/h 58 % 0 mm 0.0 W/m2 CLR
17:57 -11.6 °C -16 °C 34784.4 hPa NNW 29.8 km/h 29.8 km/h 58 % 0 mm 0.0 W/m2 CLR
17:59 -11.6 °C -16 °C 34784.4 hPa North 25.9 km/h 25.9 km/h 58 % 0 mm 0.0 W/m2 CLR
18:02 -11.6 °C -16 °C 34784.4 hPa NNE 41.7 km/h 41.7 km/h 58 % 0 mm 0.0 W/m2 CLR
18:04 -11.6 °C -16 °C 34784.4 hPa NNE 41.4 km/h 41.4 km/h 58 % 0 mm 0.0 W/m2 CLR
18:07 -11.6 °C -15.9 °C 34784.4 hPa NNW 38.8 km/h 38.8 km/h 59 % 0 mm 0.0 W/m2 CLR
18:12 -11.6 °C -15.9 °C 34774.2 hPa North 54.4 km/h 54.4 km/h 59 % 0 mm 0.0 W/m2 CLR
18:17 -11.6 °C -15.8 °C 34760.7 hPa NNW 41.7 km/h 41.7 km/h 60 % 0 mm 0.0 W/m2 CLR
18:18 -11.6 °C -15.8 °C 34760.7 hPa NNW 46.7 km/h 46.7 km/h 60 % 0 mm 0.0 W/m2 CLR
18:23 -11.6 °C -15.8 °C 34774.2 hPa North 49.2 km/h 49.2 km/h 60 % 0 mm 0.0 W/m2 CLR
18:25 -11.6 °C -15.8 °C 34774.2 hPa NNW 56.6 km/h 56.6 km/h 60 % 0 mm 0.0 W/m2 CLR
18:28 -11.6 °C -15.8 °C 34774.2 hPa NNW 44.7 km/h 44.7 km/h 60 % 0 mm 0.0 W/m2 CLR
18:32 -11.6 °C -15.8 °C 34774.2 hPa North 50.7 km/h 50.7 km/h 60 % 0 mm 0.0 W/m2 CLR
18:35 -11.6 °C -15.8 °C 34784.4 hPa North 44.7 km/h 44.7 km/h 60 % 0 mm 0.0 W/m2 CLR
18:40 -11.6 °C -15.6 °C 34774.2 hPa North 62.6 km/h 62.6 km/h 61 % 0 mm 0.0 W/m2 CLR
18:41 -11.6 °C -15.6 °C 34784.4 hPa North 59.5 km/h 59.5 km/h 61 % 0 mm 0.0 W/m2 CLR
18:42 -11.6 °C -15.6 °C 34774.2 hPa NNW 59.5 km/h 59.5 km/h 61 % 0 mm 0.0 W/m2 CLR
18:47 -11.6 °C -15.6 °C 34774.2 hPa NNW 50.7 km/h 50.7 km/h 61 % 0 mm 0.0 W/m2 CLR
18:52 -11.6 °C -15.6 °C 34774.2 hPa NNW 47.6 km/h 47.6 km/h 61 % 0 mm 0.0 W/m2 CLR
18:55 -11.6 °C -15.8 °C 34774.2 hPa NW 35.7 km/h 35.7 km/h 60 % 0 mm 0.0 W/m2 CLR
18:58 -11.6 °C -15.6 °C 34760.7 hPa NW 44.7 km/h 44.7 km/h 61 % 0 mm 0.0 W/m2 CLR
19:01 -11.6 °C -15.6 °C 34760.7 hPa NNW 46.7 km/h 46.7 km/h 61 % 0 mm 0.0 W/m2 CLR
19:03 -11.6 °C -15.6 °C 34760.7 hPa NNW 59.5 km/h 59.5 km/h 61 % 0 mm 0.0 W/m2 CLR
19:08 -11.6 °C -15.5 °C 34750.5 hPa NW 62.1 km/h 62.1 km/h 62 % 0 mm 0.0 W/m2 CLR
19:10 -11.6 °C -15.5 °C 34750.5 hPa NNW 62.6 km/h 62.6 km/h 62 % 0 mm 0.0 W/m2 CLR
19:15 -11.6 °C -15.5 °C 34726.8 hPa NNW 72.6 km/h 72.6 km/h 62 % 0 mm 0.0 W/m2 CLR
19:17 -11.6 °C -15.4 °C 34726.8 hPa NW 71.5 km/h 71.5 km/h 63 % 0 mm 0.0 W/m2 CLR
19:20 -11.6 °C -15.4 °C 34716.7 hPa NNW 56.6 km/h 56.6 km/h 63 % 0 mm 0.0 W/m2 CLR
19:22 -11.6 °C -15.4 °C 34716.7 hPa NW 59.5 km/h 59.5 km/h 63 % 0 mm 0.0 W/m2 CLR
19:27 -11.6 °C -15.2 °C 34716.7 hPa NW 62.6 km/h 62.6 km/h 64 % 0 mm 0.0 W/m2 CLR
19:32 -11.6 °C -15.1 °C 34716.7 hPa NW 68.6 km/h 68.6 km/h 65 % 0 mm 0.0 W/m2 CLR
19:37 -11.6 °C -15 °C 34716.7 hPa NW 62.6 km/h 62.6 km/h 66 % 0 mm 0.0 W/m2 CLR
19:38 -11.6 °C -15 °C 34716.7 hPa NW 62.6 km/h 62.6 km/h 66 % 0 mm 0.0 W/m2 CLR
19:39 -11.6 °C -15 °C 34716.7 hPa NW 54.4 km/h 54.4 km/h 66 % 0 mm 0.0 W/m2 CLR
19:43 -11.6 °C -15 °C 34716.7 hPa NW 44.7 km/h 44.7 km/h 66 % 0 mm 0.0 W/m2 CLR
19:47 -11.6 °C -14.9 °C 34716.7 hPa NNW 68.6 km/h 68.6 km/h 67 % 0 mm 0.0 W/m2 CLR
19:48 -11.6 °C -15 °C 34716.7 hPa NNW 59.5 km/h 59.5 km/h 66 % 0 mm 0.0 W/m2 CLR
19:53 -11.6 °C -14.9 °C 34716.7 hPa NW 56.6 km/h 56.6 km/h 67 % 0 mm 0.0 W/m2 CLR
19:55 -11.6 °C -14.9 °C 34716.7 hPa NW 35.7 km/h 35.7 km/h 67 % 0 mm 0.0 W/m2 CLR
20:00 -11.6 °C -14.8 °C 34716.7 hPa NNW 62.6 km/h 62.6 km/h 68 % 0 mm 0.0 W/m2 CLR
20:03 -11.6 °C -14.8 °C 34716.7 hPa North 53.6 km/h 53.6 km/h 68 % 0 mm 0.0 W/m2 CLR
20:04 -11.6 °C -14.8 °C 34716.7 hPa North 65.5 km/h 65.5 km/h 68 % 0 mm 0.0 W/m2 CLR
20:09 -11.6 °C -14.7 °C 34716.7 hPa NNW 59.5 km/h 59.5 km/h 69 % 0 mm 0.0 W/m2 CLR
20:10 -11.6 °C -14.7 °C 34716.7 hPa North 41.7 km/h 41.7 km/h 69 % 0 mm 0.0 W/m2 CLR
20:14 -11.6 °C -14.7 °C 34726.8 hPa NNW 47.6 km/h 47.6 km/h 69 % 0 mm 0.0 W/m2 CLR
20:19 -11.6 °C -14.6 °C 34726.8 hPa North 65.5 km/h 65.5 km/h 70 % 0 mm 0.0 W/m2 CLR
20:22 -11.6 °C -14.6 °C 34726.8 hPa NNE 50.7 km/h 50.7 km/h 70 % 0 mm 0.0 W/m2 CLR
20:23 -11.6 °C -14.6 °C 34726.8 hPa North 47.6 km/h 47.6 km/h 70 % 0 mm 0.0 W/m2 CLR
20:27 -11.6 °C -14.4 °C 34726.8 hPa NNW 50.7 km/h 50.7 km/h 71 % 0 mm 0.0 W/m2 CLR
20:32 -11.6 °C -14.4 °C 34740.4 hPa NNW 41.7 km/h 41.7 km/h 71 % 0 mm 0.0 W/m2 CLR
20:37 -11.6 °C -14.3 °C 34740.4 hPa North 65.5 km/h 65.5 km/h 72 % 0 mm 0.0 W/m2 CLR
20:42 -11.6 °C -14.3 °C 34726.8 hPa NNW 57 km/h 57 km/h 72 % 0 mm 0.0 W/m2 CLR
20:46 -11.6 °C -14.3 °C 34726.8 hPa NNW 35.7 km/h 35.7 km/h 72 % 0 mm 0.0 W/m2 CLR
20:47 -11.6 °C -14.3 °C 34726.8 hPa North 47.6 km/h 47.6 km/h 72 % 0 mm 0.0 W/m2 CLR
20:51 -11.6 °C -14.2 °C 34726.8 hPa NNW 47.6 km/h 47.6 km/h 73 % 0 mm 0.0 W/m2 CLR
20:53 -11.6 °C -14.2 °C 34726.8 hPa North 44.7 km/h 44.7 km/h 73 % 0 mm 0.0 W/m2 CLR
20:58 -11.9 °C -14.4 °C 34726.8 hPa North 32.8 km/h 32.8 km/h 74 % 0 mm 0.0 W/m2 CLR
21:03 -11.9 °C -14.4 °C 34716.7 hPa NNW 53.6 km/h 53.6 km/h 74 % 0 mm 0.0 W/m2 CLR
21:04 -11.9 °C -14.4 °C 34726.8 hPa NNW 53.6 km/h 53.6 km/h 74 % 0 mm 0.0 W/m2 CLR
21:06 -11.9 °C -14.3 °C 34726.8 hPa NNW 69.8 km/h 69.8 km/h 75 % 0 mm 0.0 W/m2 CLR
21:09 -11.9 °C -14.3 °C 34726.8 hPa North 62.6 km/h 62.6 km/h 75 % 0 mm 0.0 W/m2 CLR
21:12 -11.9 °C -14.3 °C 34716.7 hPa NNW 54.4 km/h 54.4 km/h 75 % 0 mm 0.0 W/m2 CLR
21:15 -11.9 °C -14.3 °C 34716.7 hPa NNW 59.5 km/h 59.5 km/h 75 % 0 mm 0.0 W/m2 CLR
21:17 -11.9 °C -14.2 °C 34716.7 hPa North 54.4 km/h 54.4 km/h 76 % 0 mm 0.0 W/m2 CLR
21:22 -11.9 °C -14.2 °C 34716.7 hPa North 74.5 km/h 74.5 km/h 76 % 0 mm 0.0 W/m2 CLR
21:24 -11.9 °C -14.2 °C 34716.7 hPa NNW 74.5 km/h 74.5 km/h 76 % 0 mm 0.0 W/m2 CLR
21:26 -11.9 °C -14.2 °C 34716.7 hPa North 50.7 km/h 50.7 km/h 76 % 0 mm 0.0 W/m2 CLR
21:30 -11.9 °C -14.1 °C 34716.7 hPa NW 53.6 km/h 53.6 km/h 77 % 0 mm 0.0 W/m2 CLR
21:31 -11.9 °C -14.1 °C 34716.7 hPa North 50.7 km/h 50.7 km/h 77 % 0 mm 0.0 W/m2 CLR
21:36 -11.9 °C -14.1 °C 34716.7 hPa North 59.5 km/h 59.5 km/h 77 % 0 mm 0.0 W/m2 CLR
21:38 -11.9 °C -14.1 °C 34716.7 hPa North 59.5 km/h 59.5 km/h 77 % 0 mm 0.0 W/m2 CLR
21:43 -11.9 °C -14.1 °C 34716.7 hPa North 59.5 km/h 59.5 km/h 77 % 0 mm 0.0 W/m2 CLR
21:48 -11.9 °C -13.9 °C 34716.7 hPa North 59.5 km/h 59.5 km/h 78 % 0 mm 0.0 W/m2 CLR
21:49 -11.9 °C -14.1 °C 34716.7 hPa North 49.2 km/h 49.2 km/h 77 % 0 mm 0.0 W/m2 CLR
21:51 -11.9 °C -13.9 °C 34716.7 hPa NNW 62.6 km/h 62.6 km/h 78 % 0 mm 0.0 W/m2 CLR
21:55 -11.9 °C -14.1 °C 34716.7 hPa North 47.6 km/h 47.6 km/h 77 % 0 mm 0.0 W/m2 CLR
22:00 -11.9 °C -13.9 °C 34716.7 hPa NNW 38.8 km/h 38.8 km/h 78 % 0 mm 0.0 W/m2 CLR
22:02 -11.9 °C -13.9 °C 34716.7 hPa North 44.7 km/h 44.7 km/h 78 % 0 mm 0.0 W/m2 CLR
22:07 -11.9 °C -13.9 °C 34716.7 hPa NNW 56.6 km/h 56.6 km/h 78 % 0 mm 0.0 W/m2 CLR
22:12 -11.9 °C -13.9 °C 34716.7 hPa North 50.7 km/h 50.7 km/h 78 % 0 mm 0.0 W/m2 CLR
22:13 -11.9 °C -13.9 °C 34716.7 hPa North 38.8 km/h 38.8 km/h 78 % 0 mm 0.0 W/m2 CLR
22:18 -11.9 °C -13.9 °C 34716.7 hPa North 49.2 km/h 49.2 km/h 78 % 0 mm 0.0 W/m2 CLR
22:19 -11.9 °C -13.9 °C 34716.7 hPa North 36.2 km/h 40.1 km/h 78 % 0 mm 0.0 W/m2 CLR
22:20 -11.9 °C -13.9 °C 34716.7 hPa North 53.6 km/h 53.6 km/h 78 % 0 mm 0.0 W/m2 CLR
22:25 -11.9 °C -13.9 °C 34726.8 hPa NNW 68.6 km/h 68.6 km/h 78 % 0 mm 0.0 W/m2 CLR
22:26 -11.9 °C -13.9 °C 34726.8 hPa NNW 53.6 km/h 53.6 km/h 78 % 0 mm 0.0 W/m2 CLR
22:27 -11.9 °C -13.9 °C 34726.8 hPa NNE 53.6 km/h 53.6 km/h 78 % 0 mm 0.0 W/m2 CLR
22:31 -11.6 °C -13.7 °C 34726.8 hPa NNW 53.6 km/h 53.6 km/h 78 % 0 mm 0.0 W/m2 CLR
22:36 -11.6 °C -13.7 °C 34726.8 hPa North 47.6 km/h 47.6 km/h 78 % 0 mm 0.0 W/m2 CLR
22:37 -11.6 °C -13.7 °C 34726.8 hPa North 50.7 km/h 50.7 km/h 78 % 0 mm 0.0 W/m2 CLR
22:42 -11.6 °C -13.7 °C 34726.8 hPa North 32.8 km/h 32.8 km/h 78 % 0 mm 0.0 W/m2 CLR
22:47 -11.6 °C -13.6 °C 34740.4 hPa NNE 38.8 km/h 38.8 km/h 79 % 0 mm 0.0 W/m2 CLR
22:48 -11.6 °C -13.6 °C 34740.4 hPa NE 38.8 km/h 38.8 km/h 79 % 0 mm 0.0 W/m2 CLR
22:49 -11.6 °C -13.6 °C 34740.4 hPa NE 26.9 km/h 26.9 km/h 79 % 0 mm 0.0 W/m2 CLR
22:54 -11.6 °C -13.6 °C 34740.4 hPa NNE 47.6 km/h 47.6 km/h 79 % 0 mm 0.0 W/m2 CLR
22:57 -11.6 °C -13.6 °C 34740.4 hPa NNE 32.8 km/h 32.8 km/h 79 % 0 mm 0.0 W/m2 CLR
23:02 -11.6 °C -13.6 °C 34740.4 hPa NNW 38.8 km/h 38.8 km/h 79 % 0 mm 0.0 W/m2 CLR
23:06 -11.6 °C -13.6 °C 34740.4 hPa North 29.8 km/h 29.8 km/h 79 % 0 mm 0.0 W/m2 CLR
23:09 -11.6 °C -13.6 °C 34740.4 hPa North 38.8 km/h 38.8 km/h 79 % 0 mm 0.0 W/m2 CLR
23:14 -11.9 °C -13.8 °C 34740.4 hPa North 50.7 km/h 50.7 km/h 80 % 0 mm 0.0 W/m2 CLR
23:15 -11.9 °C -13.8 °C 34740.4 hPa NNE 41.7 km/h 41.7 km/h 80 % 0 mm 0.0 W/m2 CLR
23:16 -11.9 °C -13.8 °C 34740.4 hPa NNE 41.7 km/h 41.7 km/h 80 % 0 mm 0.0 W/m2 CLR
23:20 -11.9 °C -13.8 °C 34740.4 hPa North 35.7 km/h 35.7 km/h 80 % 0 mm 0.0 W/m2 CLR
23:23 -11.9 °C -13.8 °C 34740.4 hPa NNW 41.7 km/h 41.7 km/h 80 % 0 mm 0.0 W/m2 CLR
23:26 -11.9 °C -13.8 °C 34740.4 hPa North 35.7 km/h 35.7 km/h 80 % 0 mm 0.0 W/m2 CLR
23:31 -11.9 °C -13.8 °C 34740.4 hPa North 29.8 km/h 29.8 km/h 80 % 0 mm 0.0 W/m2 CLR
23:33 -11.9 °C -13.8 °C 34740.4 hPa NNW 38.8 km/h 38.8 km/h 80 % 0 mm 0.0 W/m2 CLR
23:38 -11.9 °C -13.7 °C 34750.5 hPa NNW 23.8 km/h 23.8 km/h 81 % 0 mm 0.0 W/m2 CLR
23:43 -12.2 °C -13.9 °C 34750.5 hPa North 23.8 km/h 23.8 km/h 81 % 0 mm 0.0 W/m2 CLR
23:44 -12.2 °C -13.9 °C 34750.5 hPa North 23.8 km/h 23.8 km/h 81 % 0 mm 0.0 W/m2 CLR
23:49 -12.2 °C -13.9 °C 34760.7 hPa NNE 17.9 km/h 17.9 km/h 81 % 0 mm 0.0 W/m2 CLR
23:52 -12.2 °C -13.9 °C 34760.7 hPa Calm     81 % 0 mm 0.0 W/m2 CLR
23:54 -12.2 °C -13.9 °C 34760.7 hPa Calm     81 % 0 mm 0.0 W/m2 CLR
23:59 -11.9 °C -13.7 °C 34760.7 hPa NNE 18.2 km/h 18.2 km/h 81 % 0 mm 0.0 W/m2 CLR
Lo Temps de Massalio
Compliments of Weather Underground - 1.75 mb